createdAt,value
2022-11-20T00:05:23.087Z,167771.24
2022-11-20T00:21:06.152Z,167771.19
2022-11-20T00:36:48.734Z,167771.13
2022-11-20T00:52:31.227Z,167771.08
2022-11-20T01:08:13.462Z,167771
2022-11-20T01:23:55.671Z,167770.92
2022-11-20T01:39:38.651Z,167770.89
2022-11-20T01:55:21.399Z,167770.92
2022-11-20T02:11:04.180Z,167770.95
2022-11-20T02:26:46.636Z,167770.91
2022-11-20T02:42:29.336Z,167770.82
2022-11-20T02:58:11.814Z,167770.81
2022-11-20T03:13:54.166Z,167770.73
2022-11-20T03:29:37.139Z,167770.7
2022-11-20T03:45:19.944Z,167770.58
2022-11-20T04:01:02.871Z,167770.46
2022-11-20T04:16:45.944Z,167770.48
2022-11-20T04:32:28.889Z,167770.55
2022-11-20T04:48:11.420Z,167770.57
2022-11-20T05:03:54.165Z,167770.6
2022-11-20T05:19:37.171Z,167770.62
2022-11-20T05:35:20.230Z,167770.7
2022-11-20T05:51:02.905Z,167770.7
2022-11-20T06:06:46.012Z,167770.78
2022-11-20T06:22:28.544Z,167770.8
2022-11-20T06:38:10.907Z,167770.86
2022-11-20T06:53:53.953Z,167770.85
2022-11-20T07:09:36.329Z,167770.87
2022-11-20T07:25:19.275Z,167770.87
2022-11-20T07:41:01.876Z,167770.82
2022-11-20T07:56:45.073Z,167770.82
2022-11-20T08:12:28.050Z,167770.94
2022-11-20T08:28:10.595Z,167771.16
2022-11-20T08:43:53.133Z,167771.29
2022-11-20T08:59:35.466Z,167771.38
2022-11-20T09:15:18.204Z,167771.4
2022-11-20T09:31:00.491Z,167771.47
2022-11-20T09:46:43.510Z,167771.52
2022-11-20T10:02:26.515Z,167771.58
2022-11-20T10:18:09.486Z,167771.49
2022-11-20T10:33:51.808Z,167771.49
2022-11-20T10:49:34.280Z,167771.51
2022-11-20T11:05:16.598Z,167772.01
2022-11-20T11:20:59.748Z,167772.13
2022-11-20T11:36:42.119Z,167772
2022-11-20T11:52:24.805Z,0.31
2022-11-20T12:08:06.983Z,0.78
2022-11-20T12:23:49.543Z,1.16
2022-11-20T12:39:32.479Z,1.11
2022-11-20T12:55:15.072Z,1.33
2022-11-20T13:10:57.290Z,1.16
2022-11-20T13:26:39.482Z,0.93
2022-11-20T13:42:22.665Z,0.6
2022-11-20T13:58:05.715Z,0.33
2022-11-20T14:13:48.640Z,0.22
2022-11-20T14:29:30.974Z,0.26
2022-11-20T14:45:14.203Z,0.17
2022-11-20T15:00:56.704Z,0.07
2022-11-20T15:16:39.415Z,0.04
2022-11-20T15:32:21.733Z,0.04
2022-11-20T15:48:04.709Z,0.03
2022-11-20T16:03:47.567Z,0
2022-11-20T16:04:34.993Z,0.2
2022-11-20T16:20:17.098Z,0.02
2022-11-20T16:35:59.803Z,167772.04
2022-11-20T16:51:42.402Z,167771.69
2022-11-20T17:07:25.252Z,167771.58
2022-11-20T17:23:08.397Z,167771.55
2022-11-20T17:38:50.742Z,167771.8
2022-11-20T17:54:33.894Z,167771.51
2022-11-20T18:10:16.612Z,167771.48
2022-11-20T18:25:59.598Z,167771.36
2022-11-20T18:41:42.845Z,167771.07
2022-11-20T18:57:25.629Z,167770.8
2022-11-20T19:13:08.883Z,167770.57
2022-11-20T19:28:51.052Z,167770.36
2022-11-20T19:44:33.926Z,167770.33
2022-11-20T20:00:16.890Z,167770.5
2022-11-20T20:15:59.166Z,167770.43
2022-11-20T20:31:41.691Z,167770.15
2022-11-20T20:47:24.860Z,167769.86
2022-11-20T21:03:07.199Z,167769.54
2022-11-20T21:18:50.261Z,167769.33
2022-11-20T21:34:32.860Z,167769.11
2022-11-20T21:50:15.646Z,167768.96
2022-11-20T22:05:58.108Z,167768.73
2022-11-20T22:21:40.380Z,167768.49
2022-11-20T22:37:23.584Z,167768.31
2022-11-20T22:53:06.668Z,167768.35
2022-11-20T23:08:48.981Z,167768.39
2022-11-20T23:24:32.100Z,167768.6
2022-11-20T23:40:14.973Z,167768.84
2022-11-20T23:55:58.024Z,167769.02
